Time;durP1;ratioP1;P1;durP2;ratioP2;P2;SDS_P1;SDS_P2;PMS_P1;PMS_P2;Temp;Humidity;BMP_temperature;BMP_pressure;BME280_temperature;BME280_humidity;BME280_pressure;Samples;Min_cycle;Max_cycle;Signal;HPM_P1;HPM_P2
2022/06/11 00:01:40;;;;;;;13.95;6.00;;;;;;;-146.19;100.00;58918.88;5026046;28;20084;-45
2022/06/11 00:04:10;;;;;;;8.65;5.72;;;;;;;-146.19;100.00;58918.88;5024164;28;20084;-52
2022/06/11 00:06:42;;;;;;;;;;;;;;;-146.19;100.00;58918.88;5022767;28;20113;-48
2022/06/11 00:09:11;;;;;;;8.35;5.82;;;;;;;-146.19;100.00;58918.88;5021680;28;19975;-54
2022/06/11 00:11:40;;;;;;;6.95;5.80;;;;;;;-146.19;100.00;58918.88;5020875;28;20070;-47
2022/06/11 00:14:09;;;;;;;7.18;6.10;;;;;;;-146.19;100.00;58918.88;5025017;28;20076;-52
2022/06/11 00:16:38;;;;;;;9.15;6.00;;;;;;;-146.19;100.00;58918.88;5018191;28;20080;-50
2022/06/11 00:19:07;;;;;;;6.53;5.30;;;;;;;-146.19;100.00;58918.88;5027337;28;20647;-52
2022/06/11 00:21:40;;;;;;;6.50;5.00;;;;;;;-146.19;100.00;58918.88;5023885;28;20071;-56
2022/06/11 00:24:09;;;;;;;6.07;4.85;;;;;;;-146.19;100.00;58918.88;5026379;28;20057;-47
2022/06/11 00:26:39;;;;;;;6.47;4.95;;;;;;;-146.19;100.00;58918.88;5021720;28;20061;-55
2022/06/11 00:29:08;;;;;;;5.68;4.50;;;;;;;-146.19;100.00;58918.88;5024522;28;20180;-52
2022/06/11 00:31:36;;;;;;;6.70;4.47;;;;;;;-146.19;100.00;58918.88;5016963;28;20077;-51
2022/06/11 00:34:05;;;;;;;5.10;4.38;;;;;;;-146.19;100.00;58918.88;5024438;28;20510;-48
2022/06/11 00:36:33;;;;;;;7.55;5.90;;;;;;;-146.19;100.00;58918.88;5021605;28;20065;-48
2022/06/11 00:39:04;;;;;;;10.82;5.70;;;;;;;-146.19;100.00;58918.88;5024053;28;20452;-49
2022/06/11 00:41:33;;;;;;;9.52;6.20;;;;;;;-146.19;100.00;58918.88;5025753;28;20069;-55
2022/06/11 00:44:01;;;;;;;9.10;6.40;;;;;;;-146.19;100.00;58918.88;5021908;28;20436;-54
2022/06/11 00:46:48;;;;;;;7.60;6.40;;;;;;;-146.19;100.00;58918.88;5024914;28;20080;-53
2022/06/11 00:49:29;;;;;;;7.75;6.47;;;;;;;-146.19;100.00;58918.88;5018004;28;20061;-52
2022/06/11 00:52:07;;;;;;;8.57;6.60;;;;;;;-146.19;100.00;58918.88;5023046;28;20092;-48
2022/06/11 00:54:39;;;;;;;9.43;7.35;;;;;;;-146.19;100.00;58918.88;5022929;28;20064;-55
2022/06/11 00:57:08;;;;;;;9.13;7.07;;;;;;;-146.19;100.00;58918.88;5019956;28;20065;-50
2022/06/11 00:59:40;;;;;;;13.05;6.60;;;;;;;-146.19;100.00;58918.88;5021471;28;20061;-55
2022/06/11 01:02:09;;;;;;;5.65;5.00;;;;;;;-146.19;100.00;58918.88;5022565;28;20657;-48
2022/06/11 01:04:48;;;;;;;7.70;5.65;;;;;;;-146.19;100.00;58918.88;5025022;28;20084;-52
2022/06/11 01:07:50;;;;;;;7.68;5.60;;;;;;;-146.19;100.00;58918.88;5018887;28;20076;-52
2022/06/11 01:10:31;;;;;;;8.02;5.43;;;;;;;-146.19;100.00;58918.88;5010612;28;20430;-53
2022/06/11 01:13:07;;;;;;;9.15;6.20;;;;;;;-146.19;100.00;58918.88;5023016;28;20545;-49
2022/06/11 01:15:39;;;;;;;7.30;6.32;;;;;;;-146.19;100.00;58918.88;5025630;28;20076;-52
2022/06/11 01:18:15;;;;;;;9.23;6.68;;;;;;;-146.19;100.00;58918.88;5025138;28;20073;-48
2022/06/11 01:20:49;;;;;;;11.90;7.70;;;;;;;-146.19;100.00;58918.88;5020374;28;20072;-49
2022/06/11 01:23:50;;;;;;;9.73;7.07;;;;;;;-146.19;100.00;58918.88;5021540;28;20037;-49
2022/06/11 01:26:56;;;;;;;8.57;6.90;;;;;;;-146.19;100.00;58918.88;5028845;28;20088;-50
2022/06/11 01:29:43;;;;;;;8.38;6.68;;;;;;;-146.19;100.00;58918.88;5026266;28;20076;-48
2022/06/11 01:32:16;;;;;;;9.50;6.65;;;;;;;-146.19;100.00;58918.88;5013386;28;20061;-49
2022/06/11 01:34:51;;;;;;;10.13;6.90;;;;;;;-146.19;100.00;58918.88;5016564;28;20572;-51
2022/06/11 01:37:24;;;;;;;11.00;7.50;;;;;;;-146.19;100.00;58918.88;5030579;28;20088;-52
2022/06/11 01:39:55;;;;;;;9.57;7.15;;;;;;;-146.19;100.00;58918.88;5020802;28;20211;-48
2022/06/11 01:42:28;;;;;;;9.43;7.03;;;;;;;-146.19;100.00;58918.88;5021259;28;20069;-50
2022/06/11 01:45:06;;;;;;;9.45;6.68;;;;;;;-146.19;100.00;58918.88;5012621;28;20069;-49
2022/06/11 01:47:36;;;;;;;12.05;7.30;;;;;;;-146.19;100.00;58918.88;5018648;28;20521;-48
2022/06/11 01:50:07;;;;;;;9.13;7.20;;;;;;;-146.19;100.00;58918.88;5017184;28;20065;-51
2022/06/11 01:53:04;;;;;;;11.40;7.90;;;;;;;-146.19;100.00;58918.88;5015484;28;20088;-51
2022/06/11 01:55:45;;;;;;;9.98;6.57;;;;;;;-146.19;100.00;58918.88;5001953;28;20060;-47
2022/06/11 01:58:23;;;;;;;8.63;6.50;;;;;;;-146.19;100.00;58918.88;5023403;28;20528;-50
2022/06/11 02:00:58;;;;;;;10.25;7.13;;;;;;;-146.19;100.00;58918.88;5022236;28;20547;-52
2022/06/11 02:03:32;;;;;;;8.32;6.90;;;;;;;-146.19;100.00;58918.88;5029224;28;20065;-51
2022/06/11 02:06:25;;;;;;;11.70;7.40;;;;;;;-146.19;100.00;58918.88;5025672;28;20826;-54
2022/06/11 02:09:03;;;;;;;9.27;7.28;;;;;;;-146.19;100.00;58918.88;5017487;28;20438;-54
2022/06/11 02:11:35;;;;;;;12.02;8.15;;;;;;;-146.19;100.00;58918.88;5010805;28;20069;-52
2022/06/11 02:14:07;;;;;;;14.00;8.45;;;;;;;-146.19;100.00;58918.88;4990775;28;20069;-54
2022/06/11 02:16:40;;;;;;;9.70;7.88;;;;;;;-146.19;100.00;58918.88;5002609;28;20062;-53
2022/06/11 02:19:11;;;;;;;14.18;8.20;;;;;;;-146.19;100.00;58918.88;5024263;28;20081;-47
2022/06/11 02:21:47;;;;;;;11.38;8.90;;;;;;;-146.19;100.00;58918.88;5018488;28;20054;-54
2022/06/11 02:24:19;;;;;;;12.05;8.50;;;;;;;-146.19;100.00;58918.88;5016003;28;20061;-51
2022/06/11 02:26:51;;;;;;;9.82;8.00;;;;;;;-146.19;100.00;58918.88;5020818;28;20046;-50
2022/06/11 02:29:22;;;;;;;12.82;8.00;;;;;;;-146.19;100.00;58918.88;5024152;28;20065;-46
2022/06/11 02:31:55;;;;;;;11.32;7.85;;;;;;;-146.19;100.00;58918.88;5017307;28;20512;-50
2022/06/11 02:34:26;;;;;;;12.88;8.18;;;;;;;-146.19;100.00;58918.88;5022846;28;20081;-54
2022/06/11 02:37:00;;;;;;;11.45;8.25;;;;;;;-146.19;100.00;58918.88;5015576;28;20539;-54
2022/06/11 02:39:30;;;;;;;9.10;7.63;;;;;;;-146.19;100.00;58918.88;5020367;28;20041;-52
2022/06/11 02:41:58;;;;;;;8.98;7.63;;;;;;;-146.19;100.00;58918.88;5017733;28;20507;-51
2022/06/11 02:44:27;;;;;;;11.20;8.55;;;;;;;-146.19;100.00;58918.88;5021309;28;20457;-50
2022/06/11 02:46:57;;;;;;;9.82;7.65;;;;;;;-146.19;100.00;58918.88;5012004;28;20060;-45
2022/06/11 02:49:29;;;;;;;9.25;6.65;;;;;;;-146.19;100.00;58918.88;5022785;28;20083;-46
2022/06/11 02:51:59;;;;;;;10.57;7.63;;;;;;;-146.19;100.00;58918.88;5018348;28;20084;-48
2022/06/11 02:54:28;;;;;;;11.98;8.45;;;;;;;-146.19;100.00;58918.88;5020725;28;20061;-51
2022/06/11 02:56:59;;;;;;;13.18;8.77;;;;;;;-146.19;100.00;58918.88;5019521;28;20072;-53
2022/06/11 02:59:28;;;;;;;13.05;8.15;;;;;;;-146.19;100.00;58918.88;5018236;28;20053;-47
2022/06/11 03:01:58;;;;;;;11.63;7.53;;;;;;;-146.19;100.00;58918.88;5016388;28;20142;-52
2022/06/11 03:04:28;;;;;;;12.38;8.50;;;;;;;-146.19;100.00;58918.88;5019274;28;20073;-46
2022/06/11 03:06:56;;;;;;;11.00;8.75;;;;;;;-146.19;100.00;58918.88;5016987;28;20077;-46
2022/06/11 03:09:28;;;;;;;9.70;8.05;;;;;;;-146.19;100.00;58918.88;5018130;28;20058;-53
2022/06/11 03:11:57;;;;;;;13.00;8.45;;;;;;;-146.19;100.00;58918.88;5021074;28;20057;-47
2022/06/11 03:14:25;;;;;;;12.13;8.55;;;;;;;-146.19;100.00;58918.88;5019785;28;20058;-52
2022/06/11 03:16:54;;;;;;;11.35;8.38;;;;;;;-146.19;100.00;58918.88;5019730;28;20068;-50
2022/06/11 03:19:23;;;;;;;10.88;8.10;;;;;;;-146.19;100.00;58918.88;5014773;28;20555;-52
2022/06/11 03:21:55;;;;;;;12.75;8.50;;;;;;;-146.19;100.00;58918.88;5020770;28;21503;-49
2022/06/11 03:24:24;;;;;;;15.40;8.27;;;;;;;-146.19;100.00;58918.88;5020986;28;20467;-47
2022/06/11 03:26:52;;;;;;;14.32;7.65;;;;;;;-146.19;100.00;58918.88;5023635;28;20053;-53
2022/06/11 03:29:22;;;;;;;9.80;7.75;;;;;;;-146.19;100.00;58918.88;5022228;28;20049;-54
2022/06/11 03:31:51;;;;;;;11.52;7.60;;;;;;;-146.19;100.00;58918.88;5021121;28;20053;-49
2022/06/11 03:34:19;;;;;;;10.25;7.30;;;;;;;-146.19;100.00;58918.88;5023193;28;20069;-52
2022/06/11 03:36:52;;;;;;;10.57;7.60;;;;;;;-146.19;100.00;58918.88;5021351;28;20061;-50
2022/06/11 03:39:21;;;;;;;10.65;7.78;;;;;;;-146.19;100.00;58918.88;5021670;28;20475;-51
2022/06/11 03:41:50;;;;;;;9.77;7.40;;;;;;;-146.19;100.00;58918.88;5018915;28;20124;-47
2022/06/11 03:44:18;;;;;;;8.88;7.43;;;;;;;-146.19;100.00;58918.88;5023809;28;20077;-54
2022/06/11 03:46:48;;;;;;;10.18;7.72;;;;;;;-146.19;100.00;58918.88;5022648;28;20057;-56
2022/06/11 03:49:17;;;;;;;7.57;6.70;;;;;;;-146.19;100.00;58918.88;5021454;28;20086;-49
2022/06/11 03:51:47;;;;;;;9.13;6.10;;;;;;;-146.19;100.00;58918.88;5019137;28;20073;-47
2022/06/11 03:54:18;;;;;;;8.63;5.80;;;;;;;-146.19;100.00;58918.88;5016575;28;20102;-53
2022/06/11 03:56:48;;;;;;;7.32;5.63;;;;;;;-146.19;100.00;58918.88;5017773;28;20064;-49
2022/06/11 03:59:17;;;;;;;7.40;6.45;;;;;;;-146.19;100.00;58918.88;5016746;28;20065;-50
2022/06/11 04:01:47;;;;;;;6.82;6.10;;;;;;;-146.19;100.00;58918.88;5016840;28;20057;-54
2022/06/11 04:04:18;;;;;;;8.30;6.30;;;;;;;-146.19;100.00;58918.88;5022071;28;20102;-53
2022/06/11 04:06:49;;;;;;;7.10;6.32;;;;;;;-146.19;100.00;58918.88;5020342;28;20065;-57
2022/06/11 04:09:21;;;;;;;7.03;6.38;;;;;;;-146.19;100.00;58918.88;5025340;28;20053;-47
2022/06/11 04:11:50;;;;;;;7.25;6.03;;;;;;;-146.19;100.00;58918.88;5020622;28;20069;-52
2022/06/11 04:14:19;;;;;;;9.15;6.20;;;;;;;-146.19;100.00;58918.88;5022010;28;20124;-54
2022/06/11 04:16:50;;;;;;;7.13;6.43;;;;;;;-146.19;100.00;58918.88;5024595;28;20060;-51
2022/06/11 04:19:21;;;;;;;7.03;6.32;;;;;;;-146.19;100.00;58918.88;5021916;28;20088;-49
2022/06/11 04:21:51;;;;;;;6.70;6.05;;;;;;;-146.19;100.00;58918.88;5019582;28;20465;-45
2022/06/11 04:24:21;;;;;;;8.10;5.90;;;;;;;-146.19;100.00;58918.88;5022773;28;20066;-52
2022/06/11 04:26:52;;;;;;;7.13;5.75;;;;;;;-146.19;100.00;58918.88;5025351;28;20164;-54
2022/06/11 04:29:21;;;;;;;;;;;;;;;-146.19;100.00;58918.88;5019407;28;20065;-50
2022/06/11 04:31:51;;;;;;;6.65;6.05;;;;;;;-146.19;100.00;58918.88;5024460;28;19963;-48
2022/06/11 04:34:20;;;;;;;;;;;;;;;-146.19;100.00;58918.88;5023470;28;20075;-50
2022/06/11 04:36:50;;;;;;;6.57;5.75;;;;;;;-146.19;100.00;58918.88;5022436;28;19956;-55
2022/06/11 04:39:22;;;;;;;6.85;5.75;;;;;;;-146.19;100.00;58918.88;5019637;28;20076;-54
2022/06/11 04:41:51;;;;;;;6.32;5.60;;;;;;;-146.19;100.00;58918.88;5024485;28;20465;-48
2022/06/11 04:44:19;;;;;;;5.88;5.32;;;;;;;-146.19;100.00;58918.88;5019878;28;20065;-46
2022/06/11 04:46:48;;;;;;;6.60;6.00;;;;;;;-146.19;100.00;58918.88;5022220;28;20072;-49
2022/06/11 04:49:17;;;;;;;6.22;5.63;;;;;;;-146.19;100.00;58918.88;5022357;28;20084;-54
2022/06/11 04:51:47;;;;;;;5.95;5.30;;;;;;;-146.19;100.00;58918.88;5023760;28;20073;-51
2022/06/11 04:54:15;;;;;;;6.30;5.70;;;;;;;-146.19;100.00;58918.88;5019251;28;20060;-56
2022/06/11 04:56:45;;;;;;;6.80;5.60;;;;;;;-146.19;100.00;58918.88;5013572;28;20057;-50
2022/06/11 04:59:13;;;;;;;5.85;5.35;;;;;;;-146.19;100.00;58918.88;5007596;28;20348;-53
2022/06/11 05:01:43;;;;;;;6.20;5.53;;;;;;;-146.19;100.00;58918.88;5023144;28;20069;-56
2022/06/11 05:04:12;;;;;;;;;;;;;;;-146.19;100.00;58918.88;5024500;28;20464;-56
2022/06/11 05:06:44;;;;;;;8.95;5.65;;;;;;;-146.19;100.00;58918.88;5022707;28;19979;-50
2022/06/11 05:09:17;;;;;;;6.35;5.60;;;;;;;-146.19;100.00;58918.88;5021204;28;20069;-55
2022/06/11 05:11:48;;;;;;;7.93;5.40;;;;;;;-146.19;100.00;58918.88;5019219;28;20088;-46
2022/06/11 05:14:17;;;;;;;6.45;5.45;;;;;;;-146.19;100.00;58918.88;5018452;28;20077;-52
2022/06/11 05:16:47;;;;;;;6.45;5.43;;;;;;;-146.19;100.00;58918.88;5014418;28;20441;-49
2022/06/11 05:19:18;;;;;;;5.97;4.97;;;;;;;-146.19;100.00;58918.88;5023443;28;20077;-46
2022/06/11 05:21:47;;;;;;;6.13;5.25;;;;;;;-146.19;100.00;58918.88;5019964;28;20076;-50
2022/06/11 05:24:15;;;;;;;5.45;4.95;;;;;;;-146.19;100.00;58918.88;5019009;28;20088;-53
2022/06/11 05:26:48;;;;;;;6.15;5.50;;;;;;;-146.19;100.00;58918.88;5010066;28;20778;-48
2022/06/11 05:29:22;;;;;;;6.68;5.15;;;;;;;-146.19;100.00;58918.88;5009561;28;20524;-52
2022/06/11 05:31:51;;;;;;;5.45;4.70;;;;;;;-146.19;100.00;58918.88;5024999;28;20065;-53
2022/06/11 05:34:26;;;;;;;6.47;5.00;;;;;;;-146.19;100.00;58918.88;5021746;28;20585;-51
2022/06/11 05:36:55;;;;;;;5.07;4.55;;;;;;;-146.19;100.00;58918.88;5021334;28;20476;-51
2022/06/11 05:39:23;;;;;;;5.25;4.70;;;;;;;-146.19;100.00;58918.88;5020080;28;20079;-47
2022/06/11 05:41:53;;;;;;;4.95;4.45;;;;;;;-146.19;100.00;58918.88;5021402;28;20061;-50
2022/06/11 05:44:22;;;;;;;5.50;4.50;;;;;;;-146.19;100.00;58918.88;5018277;28;20103;-43
2022/06/11 05:46:52;;;;;;;4.90;4.40;;;;;;;-146.19;100.00;58918.88;5020363;28;20467;-47
2022/06/11 05:49:21;;;;;;;;;;;;;;;-146.19;100.00;58918.88;5019621;28;20432;-53
2022/06/11 05:51:53;;;;;;;4.55;4.15;;;;;;;-146.19;100.00;58918.88;5021519;28;19971;-46
2022/06/11 05:54:25;;;;;;;5.47;4.22;;;;;;;-146.19;100.00;58918.88;5021139;28;20073;-49
2022/06/11 05:56:56;;;;;;;5.10;4.60;;;;;;;-146.19;100.00;58918.88;5018425;28;20060;-47
2022/06/11 05:59:29;;;;;;;5.03;4.53;;;;;;;-146.19;100.00;58918.88;5015385;28;20061;-50
2022/06/11 06:02:01;;;;;;;4.40;3.97;;;;;;;-146.19;100.00;58918.88;5023005;28;20072;-49
2022/06/11 06:04:29;;;;;;;5.35;4.00;;;;;;;-146.19;100.00;58918.88;5019906;28;20069;-49
2022/06/11 06:06:58;;;;;;;4.47;3.92;;;;;;;-146.19;100.00;58918.88;5019057;28;20092;-49
2022/06/11 06:09:26;;;;;;;4.95;3.75;;;;;;;-146.19;100.00;58918.88;5019478;28;20066;-49
2022/06/11 06:11:56;;;;;;;7.47;4.00;;;;;;;-146.19;100.00;58918.88;5014742;28;20073;-46
2022/06/11 06:14:24;;;;;;;6.50;3.70;;;;;;;-146.19;100.00;58918.88;5018753;28;20463;-50
2022/06/11 06:16:53;;;;;;;11.02;4.30;;;;;;;-146.19;100.00;58918.88;5021356;28;20079;-47
2022/06/11 06:19:21;;;;;;;5.20;4.13;;;;;;;-146.19;100.00;58918.88;5018088;28;20095;-44
2022/06/11 06:21:56;;;;;;;5.65;4.30;;;;;;;-146.19;100.00;58918.88;5023751;28;20438;-47
2022/06/11 06:24:24;;;;;;;5.30;4.28;;;;;;;-146.19;100.00;58918.88;5017913;28;20070;-54
2022/06/11 06:26:53;;;;;;;4.80;4.07;;;;;;;-146.19;100.00;58918.88;5022550;28;20072;-50
2022/06/11 06:29:23;;;;;;;4.43;3.90;;;;;;;-146.19;100.00;58918.88;5016069;28;20127;-54
2022/06/11 06:31:52;;;;;;;5.68;4.57;;;;;;;-146.19;100.00;58918.88;5023398;28;20041;-44
2022/06/11 06:34:20;;;;;;;5.70;4.22;;;;;;;-146.19;100.00;58918.88;5017869;28;20076;-49
2022/06/11 06:36:49;;;;;;;5.00;4.30;;;;;;;-146.19;100.00;58918.88;5017517;28;20075;-44
2022/06/11 06:39:17;;;;;;;7.32;4.43;;;;;;;-146.19;100.00;58918.88;5020905;28;20061;-46
2022/06/11 06:41:46;;;;;;;6.97;4.10;;;;;;;-146.19;100.00;58918.88;5016593;28;20061;-51
2022/06/11 06:44:16;;;;;;;5.50;4.35;;;;;;;-146.19;100.00;58918.88;5019188;28;20057;-50
2022/06/11 06:46:46;;;;;;;5.25;4.05;;;;;;;-146.19;100.00;58918.88;5021911;28;20077;-52
2022/06/11 06:49:17;;;;;;;4.13;3.50;;;;;;;-146.19;100.00;58918.88;5022053;28;20053;-45
2022/06/11 06:51:46;;;;;;;5.93;3.47;;;;;;;-146.19;100.00;58918.88;5017947;28;20069;-52
2022/06/11 06:54:14;;;;;;;5.32;3.33;;;;;;;-146.19;100.00;58918.88;5018949;28;20107;-45
2022/06/11 06:56:44;;;;;;;8.13;4.03;;;;;;;-146.19;100.00;58918.88;5019210;28;20699;-48
2022/06/11 06:59:13;;;;;;;5.40;3.90;;;;;;;-146.19;100.00;58918.88;5021455;28;20100;-50
2022/06/11 07:01:41;;;;;;;7.88;3.70;;;;;;;-146.19;100.00;58918.88;5020586;28;20081;-45
2022/06/11 07:04:11;;;;;;;4.63;3.05;;;;;;;-146.19;100.00;58918.88;5021709;28;20088;-47
2022/06/11 07:06:53;;;;;;;4.38;3.60;;;;;;;-146.19;100.00;58918.88;5019766;28;20475;-47
2022/06/11 07:09:21;;;;;;;5.63;3.60;;;;;;;-146.19;100.00;58918.88;5015767;28;20073;-51
2022/06/11 07:11:50;;;;;;;5.97;3.55;;;;;;;-146.19;100.00;58918.88;5021383;28;20076;-47
2022/06/11 07:14:18;;;;;;;5.60;3.33;;;;;;;-146.19;100.00;58918.88;5018208;28;20471;-49
2022/06/11 07:16:49;;;;;;;5.90;3.67;;;;;;;-146.19;100.00;58918.88;5018865;28;20634;-48
2022/06/11 07:19:22;;;;;;;6.15;3.75;;;;;;;-146.19;100.00;58918.88;5017113;28;20092;-48
2022/06/11 07:21:54;;;;;;;4.68;3.10;;;;;;;-146.19;100.00;58918.88;5014835;28;20515;-52
2022/06/11 07:24:27;;;;;;;4.85;3.63;;;;;;;-146.19;100.00;58918.88;5019830;28;20058;-47
2022/06/11 07:26:58;;;;;;;4.80;3.78;;;;;;;-146.19;100.00;58918.88;5020074;28;20516;-50
2022/06/11 07:29:28;;;;;;;6.30;3.80;;;;;;;-146.19;100.00;58918.88;5017569;28;20077;-47
2022/06/11 07:32:01;;;;;;;8.95;6.60;;;;;;;-146.19;100.00;58918.88;5022703;28;20065;-53
2022/06/11 07:34:31;;;;;;;5.53;4.32;;;;;;;-146.19;100.00;58918.88;5024708;28;20175;-45
2022/06/11 07:37:00;;;;;;;6.13;3.92;;;;;;;-146.19;100.00;58918.88;5008992;28;20100;-50
2022/06/11 07:39:28;;;;;;;4.20;3.53;;;;;;;-146.19;100.00;58918.88;5015759;28;20069;-49
2022/06/11 07:41:57;;;;;;;6.18;4.20;;;;;;;-146.19;100.00;58918.88;5018509;28;20073;-44
2022/06/11 07:44:25;;;;;;;6.03;4.00;;;;;;;-146.19;100.00;58918.88;5021558;28;20448;-48
2022/06/11 07:46:53;;;;;;;4.72;3.28;;;;;;;-146.19;100.00;58918.88;5021386;28;20073;-50
2022/06/11 07:49:22;;;;;;;4.25;3.40;;;;;;;-146.19;100.00;58918.88;5024360;28;20112;-56
2022/06/11 07:51:52;;;;;;;3.55;3.25;;;;;;;-146.19;100.00;58918.88;5014346;28;21414;-49
2022/06/11 07:54:21;;;;;;;4.95;3.30;;;;;;;-146.19;100.00;58918.88;5021080;28;20072;-46
2022/06/11 07:56:49;;;;;;;3.90;3.35;;;;;;;-146.19;100.00;58918.88;5016669;28;20080;-45
2022/06/11 07:59:17;;;;;;;4.05;3.53;;;;;;;-146.19;100.00;58918.88;5019452;28;20074;-49
2022/06/11 08:01:46;;;;;;;4.88;3.78;;;;;;;-146.19;100.00;58918.88;5015798;28;20039;-51
2022/06/11 08:04:14;;;;;;;4.68;3.53;;;;;;;-146.19;100.00;58918.88;5016904;28;20074;-50
2022/06/11 08:06:43;;;;;;;4.18;3.67;;;;;;;-146.19;100.00;58918.88;5029305;28;20061;-48
2022/06/11 08:09:13;;;;;;;4.32;2.90;;;;;;;-146.19;100.00;58918.88;5019761;28;20070;-49
2022/06/11 08:11:41;;;;;;;4.97;3.30;;;;;;;-146.19;100.00;58918.88;5015827;28;20068;-53
2022/06/11 08:14:10;;;;;;;4.65;3.25;;;;;;;-146.19;100.00;58918.88;5026171;28;20066;-47
2022/06/11 08:16:38;;;;;;;5.55;3.38;;;;;;;-146.19;100.00;58918.88;5025365;28;20089;-53
2022/06/11 08:19:07;;;;;;;4.35;3.05;;;;;;;-146.19;100.00;58918.88;5025609;28;20117;-49
2022/06/11 08:21:36;;;;;;;5.07;3.58;;;;;;;-146.19;100.00;58918.88;5024098;28;20069;-50
2022/06/11 08:24:05;;;;;;;6.20;3.60;;;;;;;-146.19;100.00;58918.88;5023645;28;20061;-47
2022/06/11 08:26:37;;;;;;;5.30;3.10;;;;;;;-146.19;100.00;58918.88;5017774;28;20065;-45
2022/06/11 08:29:05;;;;;;;6.03;3.10;;;;;;;-146.19;100.00;58918.88;5023124;28;20471;-48
2022/06/11 08:31:34;;;;;;;5.53;2.92;;;;;;;-146.19;100.00;58918.88;5019372;28;20103;-50
2022/06/11 08:34:04;;;;;;;4.55;3.13;;;;;;;-146.19;100.00;58918.88;5024856;28;20069;-49
2022/06/11 08:36:32;;;;;;;4.65;3.33;;;;;;;-146.19;100.00;58918.88;5028776;28;20061;-51
2022/06/11 08:39:01;;;;;;;5.68;3.28;;;;;;;-146.19;100.00;58918.88;5020225;28;20090;-48
2022/06/11 08:41:33;;;;;;;5.07;2.85;;;;;;;-146.19;100.00;58918.88;5010896;28;20081;-48
2022/06/11 08:44:07;;;;;;;6.13;2.78;;;;;;;-146.19;100.00;58918.88;5023269;28;20068;-49
2022/06/11 08:46:38;;;;;;;6.95;2.90;;;;;;;-146.19;100.00;58918.88;5017832;28;20181;-46
2022/06/11 08:49:11;;;;;;;3.80;2.67;;;;;;;-146.19;100.00;58918.88;5023548;28;20436;-47
2022/06/11 08:51:44;;;;;;;4.20;3.00;;;;;;;-146.19;100.00;58918.88;5019815;28;20072;-47
2022/06/11 08:54:15;;;;;;;4.43;3.00;;;;;;;-146.19;100.00;58918.88;5016926;28;20495;-48
2022/06/11 08:56:50;;;;;;;4.05;2.97;;;;;;;-146.19;100.00;58918.88;5023269;28;20080;-50
2022/06/11 08:59:41;;;;;;;4.45;2.67;;;;;;;-146.19;100.00;58918.88;5017165;28;20076;-49
2022/06/11 09:02:38;;;;;;;4.00;2.80;;;;;;;-146.19;100.00;58918.88;4997130;28;20449;-44
2022/06/11 09:05:34;;;;;;;4.47;3.17;;;;;;;-146.19;100.00;58918.88;4996545;28;20065;-50
2022/06/11 09:08:13;;;;;;;5.18;2.97;;;;;;;-146.19;100.00;58918.88;4990021;28;20084;-50
2022/06/11 09:10:53;;;;;;;4.57;3.00;;;;;;;-146.19;100.00;58918.88;5007541;28;20748;-50
2022/06/11 09:13:35;;;;;;;4.40;2.93;;;;;;;-146.19;100.00;58918.88;5019220;28;20557;-47
2022/06/11 09:16:15;;;;;;;5.30;2.72;;;;;;;-146.19;100.00;58918.88;4995678;28;20090;-45
2022/06/11 09:19:16;;;;;;;3.35;2.33;;;;;;;-146.19;100.00;58918.88;5012482;28;20070;-50
2022/06/11 09:21:56;;;;;;;3.83;2.70;;;;;;;-146.19;100.00;58918.88;4989614;28;20085;-48
2022/06/11 09:24:43;;;;;;;4.15;2.67;;;;;;;-146.19;100.00;58918.88;5014788;28;20084;-51
2022/06/11 09:27:15;;;;;;;3.05;2.40;;;;;;;-146.19;100.00;58918.88;5017999;28;20073;-49
2022/06/11 09:29:48;;;;;;;4.80;2.45;;;;;;;-146.19;100.00;58918.88;5027654;28;20566;-50
2022/06/11 09:32:22;;;;;;;4.68;2.50;;;;;;;-146.19;100.00;58918.88;5023428;28;20084;-49
2022/06/11 09:34:55;;;;;;;6.50;2.72;;;;;;;-146.19;100.00;58918.88;5022149;28;20068;-54
2022/06/11 09:37:26;;;;;;;5.47;2.40;;;;;;;-146.19;100.00;58918.88;5022608;28;20081;-47
2022/06/11 09:40:01;;;;;;;5.97;2.17;;;;;;;-146.19;100.00;58918.88;5017554;28;20520;-48
2022/06/11 09:42:43;;;;;;;3.33;2.40;;;;;;;-146.19;100.00;58918.88;5013403;28;20663;-48
2022/06/11 09:45:16;;;;;;;6.32;2.85;;;;;;;-146.19;100.00;58918.88;5019360;28;20061;-50
2022/06/11 09:47:54;;;;;;;3.60;2.33;;;;;;;-146.19;100.00;58918.88;5017510;28;20508;-48
2022/06/11 09:50:25;;;;;;;4.50;2.60;;;;;;;-146.19;100.00;58918.88;5023234;28;20123;-53
2022/06/11 09:53:08;;;;;;;4.32;2.35;;;;;;;-146.19;100.00;58918.88;5016951;28;20065;-52
2022/06/11 09:55:44;;;;;;;4.13;2.38;;;;;;;-146.19;100.00;58918.88;5012720;28;20116;-48
2022/06/11 09:58:20;;;;;;;2.85;2.40;;;;;;;-146.19;100.00;58918.88;5026955;28;20093;-53
2022/06/11 10:01:01;;;;;;;4.57;2.47;;;;;;;-146.19;100.00;58918.88;5009012;28;20400;-49
2022/06/11 10:03:36;;;;;;;4.55;2.88;;;;;;;-146.19;100.00;58918.88;5016853;28;20066;-53
2022/06/11 10:06:08;;;;;;;4.78;2.38;;;;;;;-146.19;100.00;58918.88;5010591;28;20068;-48
2022/06/11 10:08:41;;;;;;;2.75;2.17;;;;;;;-146.19;100.00;58918.88;5022292;28;20077;-49
2022/06/11 10:11:16;;;;;;;3.08;2.20;;;;;;;-146.19;100.00;58918.88;5022771;28;20628;-49
2022/06/11 10:13:50;;;;;;;4.13;2.50;;;;;;;-146.19;100.00;58918.88;5016288;28;20111;-48
2022/06/11 10:16:28;;;;;;;3.10;2.33;;;;;;;-146.19;100.00;58918.88;5024146;28;20085;-55
2022/06/11 10:19:12;;;;;;;2.95;2.22;;;;;;;-146.19;100.00;58918.88;5005435;28;20491;-47
2022/06/11 10:21:45;;;;;;;3.80;2.25;;;;;;;-146.19;100.00;58918.88;5008281;28;20088;-50
2022/06/11 10:24:15;;;;;;;3.08;2.25;;;;;;;-146.19;100.00;58918.88;5015555;28;20061;-48
2022/06/11 10:26:47;;;;;;;4.22;2.05;;;;;;;-146.19;100.00;58918.88;5023346;28;20477;-47
2022/06/11 10:29:20;;;;;;;4.05;2.10;;;;;;;-146.19;100.00;58918.88;5018526;28;20452;-52
2022/06/11 10:31:54;;;;;;;2.85;2.17;;;;;;;-146.19;100.00;58918.88;5021676;28;20065;-47
2022/06/11 10:34:25;;;;;;;3.88;2.40;;;;;;;-146.19;100.00;58918.88;5018301;28;20551;-45
2022/06/11 10:37:00;;;;;;;3.38;2.20;;;;;;;-146.19;100.00;58918.88;5021856;28;20074;-51
2022/06/11 10:39:31;;;;;;;2.55;2.08;;;;;;;-146.19;100.00;58918.88;5011083;28;20061;-51
2022/06/11 10:42:05;;;;;;;3.50;2.03;;;;;;;-146.19;100.00;58918.88;5015860;28;20114;-54
2022/06/11 10:44:39;;;;;;;3.60;2.20;;;;;;;-146.19;100.00;58918.88;5010176;28;20072;-48
2022/06/11 10:47:19;;;;;;;3.47;2.17;;;;;;;-146.19;100.00;58918.88;5009469;28;20061;-47
2022/06/11 10:49:51;;;;;;;3.00;1.85;;;;;;;-146.19;100.00;58918.88;5019303;28;20538;-48
2022/06/11 10:52:32;;;;;;;2.80;1.98;;;;;;;-146.19;100.00;58918.88;5016240;28;20731;-45
2022/06/11 10:55:00;;;;;;;2.38;1.98;;;;;;;-146.19;100.00;58918.88;5020803;28;20128;-52
2022/06/11 10:57:29;;;;;;;4.22;2.08;;;;;;;-146.19;100.00;58918.88;5025431;28;20442;-48
2022/06/11 11:00:05;;;;;;;4.05;2.33;;;;;;;-146.19;100.00;58918.88;5026838;28;20076;-48
2022/06/11 11:02:38;;;;;;;2.22;1.90;;;;;;;-146.19;100.00;58918.88;5022200;28;20072;-47
2022/06/11 11:05:11;;;;;;;3.00;2.30;;;;;;;-146.19;100.00;58918.88;5027471;28;20061;-51
2022/06/11 11:07:45;;;;;;;4.65;2.33;;;;;;;-146.19;100.00;58918.88;5019563;28;20508;-52
2022/06/11 11:10:30;;;;;;;4.68;2.22;;;;;;;-146.19;100.00;58918.88;5021921;28;20092;-51
2022/06/11 11:13:02;;;;;;;3.33;2.20;;;;;;;-146.19;100.00;58918.88;5027734;28;20445;-49
2022/06/11 11:15:38;;;;;;;6.30;2.60;;;;;;;-146.19;100.00;58918.88;5023435;28;20061;-53
2022/06/11 11:18:12;;;;;;;3.20;2.40;;;;;;;-146.19;100.00;58918.88;5021201;28;20069;-49
2022/06/11 11:20:43;;;;;;;3.13;1.80;;;;;;;-146.19;100.00;58918.88;5021256;28;20058;-49
2022/06/11 11:23:16;;;;;;;3.65;1.90;;;;;;;-146.19;100.00;58918.88;5022475;28;20065;-48
2022/06/11 11:25:48;;;;;;;2.95;1.92;;;;;;;-146.19;100.00;58918.88;5024749;28;20061;-47
2022/06/11 11:28:20;;;;;;;3.85;2.13;;;;;;;-146.19;100.00;58918.88;5032235;28;20073;-48
2022/06/11 11:30:58;;;;;;;4.45;2.00;;;;;;;-146.19;100.00;58918.88;5030828;28;20481;-51
2022/06/11 11:33:29;;;;;;;2.35;1.92;;;;;;;-146.19;100.00;58918.88;5031152;28;20061;-49